sensor_id;sensor_type;location;lat;lon;timestamp;temperature;humidity
48912;DHT22;34722;52.108;5.044;2023-06-04T00:01:21;12.80;13.40
48912;DHT22;34722;52.108;5.044;2023-06-04T00:03:47;12.70;99.90
48912;DHT22;34722;52.108;5.044;2023-06-04T00:06:13;12.60;1.00
48912;DHT22;34722;52.108;5.044;2023-06-04T00:08:38;12.60;12.00
48912;DHT22;34722;52.108;5.044;2023-06-04T00:11:04;12.60;84.10
48912;DHT22;34722;52.108;5.044;2023-06-04T00:13:30;12.50;99.90
48912;DHT22;34722;52.108;5.044;2023-06-04T00:15:55;12.50;99.90
48912;DHT22;34722;52.108;5.044;2023-06-04T00:18:21;12.50;1.00
48912;DHT22;34722;52.108;5.044;2023-06-04T00:20:47;12.40;1.00
48912;DHT22;34722;52.108;5.044;2023-06-04T00:23:12;12.40;1.00
48912;DHT22;34722;52.108;5.044;2023-06-04T00:25:38;12.40;1.00
48912;DHT22;34722;52.108;5.044;2023-06-04T00:28:03;12.40;99.90
48912;DHT22;34722;52.108;5.044;2023-06-04T00:30:29;12.40;99.90
48912;DHT22;34722;52.108;5.044;2023-06-04T00:32:55;12.30;99.90
48912;DHT22;34722;52.108;5.044;2023-06-04T00:35:20;12.30;1.00
48912;DHT22;34722;52.108;5.044;2023-06-04T00:37:46;12.30;1.00
48912;DHT22;34722;52.108;5.044;2023-06-04T00:40:12;12.30;51.80
48912;DHT22;34722;52.108;5.044;2023-06-04T00:42:37;12.30;99.90
48912;DHT22;34722;52.108;5.044;2023-06-04T00:45:04;12.30;99.90
48912;DHT22;34722;52.108;5.044;2023-06-04T00:47:33;12.20;99.90
48912;DHT22;34722;52.108;5.044;2023-06-04T00:49:58;12.10;1.00
48912;DHT22;34722;52.108;5.044;2023-06-04T00:52:24;12.10;1.00
48912;DHT22;34722;52.108;5.044;2023-06-04T00:54:52;12.10;99.90
48912;DHT22;34722;52.108;5.044;2023-06-04T00:57:20;12.10;1.00
48912;DHT22;34722;52.108;5.044;2023-06-04T00:59:46;12.10;1.00
48912;DHT22;34722;52.108;5.044;2023-06-04T01:04:50;12.00;53.80
48912;DHT22;34722;52.108;5.044;2023-06-04T01:07:19;11.90;99.90
48912;DHT22;34722;52.108;5.044;2023-06-04T01:09:45;11.90;99.90
48912;DHT22;34722;52.108;5.044;2023-06-04T01:12:11;11.90;99.90
48912;DHT22;34722;52.108;5.044;2023-06-04T01:14:37;11.80;1.00
48912;DHT22;34722;52.108;5.044;2023-06-04T01:17:39;11.80;1.00
48912;DHT22;34722;52.108;5.044;2023-06-04T01:25:28;11.70;1.00
48912;DHT22;34722;52.108;5.044;2023-06-04T01:27:57;11.70;1.00
48912;DHT22;34722;52.108;5.044;2023-06-04T01:30:34;11.70;1.00
48912;DHT22;34722;52.108;5.044;2023-06-04T01:33:01;11.70;1.00
48912;DHT22;34722;52.108;5.044;2023-06-04T01:35:28;11.60;1.00
48912;DHT22;34722;52.108;5.044;2023-06-04T01:37:56;11.60;1.00
48912;DHT22;34722;52.108;5.044;2023-06-04T01:40:22;11.50;1.00
48912;DHT22;34722;52.108;5.044;2023-06-04T01:42:48;11.50;1.00
48912;DHT22;34722;52.108;5.044;2023-06-04T01:45:14;11.50;1.00
48912;DHT22;34722;52.108;5.044;2023-06-04T01:47:39;11.50;1.00
48912;DHT22;34722;52.108;5.044;2023-06-04T01:50:06;11.50;1.00
48912;DHT22;34722;52.108;5.044;2023-06-04T01:52:41;11.50;1.00
48912;DHT22;34722;52.108;5.044;2023-06-04T01:55:08;11.50;1.00
48912;DHT22;34722;52.108;5.044;2023-06-04T01:57:35;11.50;1.00
48912;DHT22;34722;52.108;5.044;2023-06-04T02:00:02;11.50;1.00
48912;DHT22;34722;52.108;5.044;2023-06-04T02:02:29;11.50;1.00
48912;DHT22;34722;52.108;5.044;2023-06-04T02:04:55;11.50;1.00
48912;DHT22;34722;52.108;5.044;2023-06-04T02:07:20;11.50;1.00
48912;DHT22;34722;52.108;5.044;2023-06-04T02:09:47;11.50;99.90
48912;DHT22;34722;52.108;5.044;2023-06-04T02:12:13;11.50;99.90
48912;DHT22;34722;52.108;5.044;2023-06-04T02:14:39;11.40;99.90
48912;DHT22;34722;52.108;5.044;2023-06-04T02:17:05;11.40;99.90
48912;DHT22;34722;52.108;5.044;2023-06-04T02:19:35;11.40;99.90
48912;DHT22;34722;52.108;5.044;2023-06-04T02:22:02;11.40;99.90
48912;DHT22;34722;52.108;5.044;2023-06-04T02:24:28;11.30;99.90
48912;DHT22;34722;52.108;5.044;2023-06-04T02:26:53;11.30;99.90
48912;DHT22;34722;52.108;5.044;2023-06-04T02:29:19;11.20;99.90
48912;DHT22;34722;52.108;5.044;2023-06-04T02:31:44;11.20;99.90
48912;DHT22;34722;52.108;5.044;2023-06-04T02:34:10;11.20;99.90
48912;DHT22;34722;52.108;5.044;2023-06-04T02:36:36;11.20;99.90
48912;DHT22;34722;52.108;5.044;2023-06-04T02:39:01;11.20;99.90
48912;DHT22;34722;52.108;5.044;2023-06-04T02:41:28;11.20;99.90
48912;DHT22;34722;52.108;5.044;2023-06-04T02:43:53;11.20;91.40
48912;DHT22;34722;52.108;5.044;2023-06-04T02:46:19;11.20;1.00
48912;DHT22;34722;52.108;5.044;2023-06-04T02:48:44;11.20;99.90
48912;DHT22;34722;52.108;5.044;2023-06-04T02:51:11;11.20;99.90
48912;DHT22;34722;52.108;5.044;2023-06-04T02:53:37;11.20;99.90
48912;DHT22;34722;52.108;5.044;2023-06-04T02:56:02;11.20;1.00
48912;DHT22;34722;52.108;5.044;2023-06-04T02:58:28;11.20;1.00
48912;DHT22;34722;52.108;5.044;2023-06-04T03:00:54;11.20;99.90
48912;DHT22;34722;52.108;5.044;2023-06-04T03:03:21;11.10;99.90
48912;DHT22;34722;52.108;5.044;2023-06-04T03:05:47;11.10;99.90
48912;DHT22;34722;52.108;5.044;2023-06-04T03:08:13;11.00;99.90
48912;DHT22;34722;52.108;5.044;2023-06-04T03:10:39;11.00;99.90
48912;DHT22;34722;52.108;5.044;2023-06-04T03:13:04;11.00;99.90
48912;DHT22;34722;52.108;5.044;2023-06-04T03:15:30;11.10;1.00
48912;DHT22;34722;52.108;5.044;2023-06-04T03:17:56;11.10;1.00
48912;DHT22;34722;52.108;5.044;2023-06-04T03:20:22;11.00;99.90
48912;DHT22;34722;52.108;5.044;2023-06-04T03:22:50;11.00;99.90
48912;DHT22;34722;52.108;5.044;2023-06-04T03:25:16;11.00;99.90
48912;DHT22;34722;52.108;5.044;2023-06-04T03:27:41;11.00;16.10
48912;DHT22;34722;52.108;5.044;2023-06-04T03:30:08;11.00;1.00
48912;DHT22;34722;52.108;5.044;2023-06-04T03:32:33;11.00;1.00
48912;DHT22;34722;52.108;5.044;2023-06-04T03:35:00;11.00;1.00
48912;DHT22;34722;52.108;5.044;2023-06-04T03:37:25;11.00;1.00
48912;DHT22;34722;52.108;5.044;2023-06-04T03:39:52;11.00;1.00
48912;DHT22;34722;52.108;5.044;2023-06-04T03:42:17;11.00;34.20
48912;DHT22;34722;52.108;5.044;2023-06-04T03:44:43;11.00;89.50
48912;DHT22;34722;52.108;5.044;2023-06-04T03:47:09;10.90;99.90
48912;DHT22;34722;52.108;5.044;2023-06-04T03:49:35;10.90;99.90
48912;DHT22;34722;52.108;5.044;2023-06-04T03:52:01;10.90;99.90
48912;DHT22;34722;52.108;5.044;2023-06-04T03:54:26;10.90;99.90
48912;DHT22;34722;52.108;5.044;2023-06-04T03:56:52;11.00;99.90
48912;DHT22;34722;52.108;5.044;2023-06-04T03:59:18;11.00;99.90
48912;DHT22;34722;52.108;5.044;2023-06-04T04:01:43;11.00;99.90
48912;DHT22;34722;52.108;5.044;2023-06-04T04:04:09;11.00;1.00
48912;DHT22;34722;52.108;5.044;2023-06-04T04:06:35;11.00;1.00
48912;DHT22;34722;52.108;5.044;2023-06-04T04:09:02;11.10;1.00
48912;DHT22;34722;52.108;5.044;2023-06-04T04:11:29;11.10;7.10
48912;DHT22;34722;52.108;5.044;2023-06-04T04:13:56;11.20;11.40
48912;DHT22;34722;52.108;5.044;2023-06-04T04:16:23;11.20;99.90
48912;DHT22;34722;52.108;5.044;2023-06-04T04:18:49;11.20;99.90
48912;DHT22;34722;52.108;5.044;2023-06-04T04:21:15;11.30;99.90
48912;DHT22;34722;52.108;5.044;2023-06-04T04:23:40;11.60;99.90
48912;DHT22;34722;52.108;5.044;2023-06-04T04:26:07;11.90;99.90
48912;DHT22;34722;52.108;5.044;2023-06-04T04:28:32;12.20;99.90
48912;DHT22;34722;52.108;5.044;2023-06-04T04:30:59;12.30;99.90
48912;DHT22;34722;52.108;5.044;2023-06-04T04:33:28;12.40;99.90
48912;DHT22;34722;52.108;5.044;2023-06-04T04:35:58;12.30;99.90
48912;DHT22;34722;52.108;5.044;2023-06-04T04:38:25;12.10;99.90
48912;DHT22;34722;52.108;5.044;2023-06-04T04:40:51;12.00;99.90
48912;DHT22;34722;52.108;5.044;2023-06-04T04:43:33;11.90;1.00
48912;DHT22;34722;52.108;5.044;2023-06-04T04:45:59;11.90;99.90
48912;DHT22;34722;52.108;5.044;2023-06-04T04:48:25;11.90;1.00
48912;DHT22;34722;52.108;5.044;2023-06-04T04:50:51;11.90;84.20
48912;DHT22;34722;52.108;5.044;2023-06-04T04:53:17;11.90;99.90
48912;DHT22;34722;52.108;5.044;2023-06-04T04:55:43;12.00;1.00
48912;DHT22;34722;52.108;5.044;2023-06-04T04:58:08;12.00;99.90
48912;DHT22;34722;52.108;5.044;2023-06-04T05:00:34;12.00;99.90
48912;DHT22;34722;52.108;5.044;2023-06-04T05:03:00;12.10;99.90
48912;DHT22;34722;52.108;5.044;2023-06-04T05:05:25;12.20;99.90
48912;DHT22;34722;52.108;5.044;2023-06-04T05:07:51;12.30;99.90
48912;DHT22;34722;52.108;5.044;2023-06-04T05:10:17;12.40;99.90
48912;DHT22;34722;52.108;5.044;2023-06-04T05:12:57;12.40;99.90
48912;DHT22;34722;52.108;5.044;2023-06-04T05:15:23;12.50;99.90
48912;DHT22;34722;52.108;5.044;2023-06-04T05:17:50;12.50;99.90
48912;DHT22;34722;52.108;5.044;2023-06-04T05:20:17;12.70;99.90
48912;DHT22;34722;52.108;5.044;2023-06-04T05:22:44;12.80;99.90
48912;DHT22;34722;52.108;5.044;2023-06-04T05:25:11;12.90;99.90
48912;DHT22;34722;52.108;5.044;2023-06-04T06:09:01;21.70;1.00
48912;DHT22;34722;52.108;5.044;2023-06-04T06:11:42;21.90;1.00
48912;DHT22;34722;52.108;5.044;2023-06-04T06:14:12;22.30;1.00
48912;DHT22;34722;52.108;5.044;2023-06-04T06:16:57;22.60;1.00
48912;DHT22;34722;52.108;5.044;2023-06-04T06:19:39;23.10;99.90
48912;DHT22;34722;52.108;5.044;2023-06-04T06:22:39;23.20;99.90
48912;DHT22;34722;52.108;5.044;2023-06-04T06:25:18;22.90;99.90
48912;DHT22;34722;52.108;5.044;2023-06-04T06:27:49;23.10;99.90
48912;DHT22;34722;52.108;5.044;2023-06-04T06:30:15;22.80;99.90
48912;DHT22;34722;52.108;5.044;2023-06-04T06:33:03;22.70;99.90
48912;DHT22;34722;52.108;5.044;2023-06-04T06:35:57;22.70;99.90
48912;DHT22;34722;52.108;5.044;2023-06-04T06:42:07;22.90;99.90
48912;DHT22;34722;52.108;5.044;2023-06-04T06:44:50;23.60;99.90
48912;DHT22;34722;52.108;5.044;2023-06-04T06:47:30;24.20;99.90
48912;DHT22;34722;52.108;5.044;2023-06-04T06:53:19;24.80;99.90
48912;DHT22;34722;52.108;5.044;2023-06-04T06:55:53;24.80;99.90
48912;DHT22;34722;52.108;5.044;2023-06-04T06:58:25;24.90;99.90
48912;DHT22;34722;52.108;5.044;2023-06-04T07:01:08;24.70;99.90
48912;DHT22;34722;52.108;5.044;2023-06-04T07:07:22;25.30;99.90
48912;DHT22;34722;52.108;5.044;2023-06-04T07:10:25;24.20;99.90
48912;DHT22;34722;52.108;5.044;2023-06-04T07:18:56;25.50;99.90
48912;DHT22;34722;52.108;5.044;2023-06-04T07:21:28;25.60;99.90
48912;DHT22;34722;52.108;5.044;2023-06-04T07:23:55;25.70;99.90
48912;DHT22;34722;52.108;5.044;2023-06-04T07:26:26;25.70;99.90
48912;DHT22;34722;52.108;5.044;2023-06-04T07:28:56;26.30;99.90
48912;DHT22;34722;52.108;5.044;2023-06-04T07:31:33;25.60;99.90
48912;DHT22;34722;52.108;5.044;2023-06-04T07:34:00;26.00;99.90
48912;DHT22;34722;52.108;5.044;2023-06-04T07:36:26;25.60;99.90
48912;DHT22;34722;52.108;5.044;2023-06-04T07:39:05;26.40;99.90
48912;DHT22;34722;52.108;5.044;2023-06-04T07:44:33;26.40;99.90
48912;DHT22;34722;52.108;5.044;2023-06-04T07:47:02;26.90;99.20
48912;DHT22;34722;52.108;5.044;2023-06-04T07:49:33;27.10;94.10
48912;DHT22;34722;52.108;5.044;2023-06-04T07:52:57;27.20;88.10
48912;DHT22;34722;52.108;5.044;2023-06-04T07:55:20;26.70;70.90
48912;DHT22;34722;52.108;5.044;2023-06-04T07:58:00;27.40;62.60
48912;DHT22;34722;52.108;5.044;2023-06-04T08:00:28;28.00;78.50
48912;DHT22;34722;52.108;5.044;2023-06-04T08:03:04;27.10;43.80
48912;DHT22;34722;52.108;5.044;2023-06-04T08:06:28;26.30;28.20
48912;DHT22;34722;52.108;5.044;2023-06-04T08:08:54;27.50;46.60
48912;DHT22;34722;52.108;5.044;2023-06-04T08:11:20;27.90;36.70
48912;DHT22;34722;52.108;5.044;2023-06-04T08:13:48;27.90;28.70
48912;DHT22;34722;52.108;5.044;2023-06-04T08:16:17;27.60;22.20
48912;DHT22;34722;52.108;5.044;2023-06-04T08:18:45;28.30;17.70
48912;DHT22;34722;52.108;5.044;2023-06-04T08:21:14;27.90;15.70
48912;DHT22;34722;52.108;5.044;2023-06-04T08:23:53;27.30;12.60
48912;DHT22;34722;52.108;5.044;2023-06-04T08:26:22;27.60;7.40
48912;DHT22;34722;52.108;5.044;2023-06-04T08:28:49;27.70;7.60
48912;DHT22;34722;52.108;5.044;2023-06-04T08:31:17;28.10;8.60
48912;DHT22;34722;52.108;5.044;2023-06-04T08:33:45;28.40;6.10
48912;DHT22;34722;52.108;5.044;2023-06-04T08:36:11;29.00;9.60
48912;DHT22;34722;52.108;5.044;2023-06-04T08:38:37;29.50;4.60
48912;DHT22;34722;52.108;5.044;2023-06-04T08:41:15;28.90;1.00
48912;DHT22;34722;52.108;5.044;2023-06-04T08:43:42;29.30;1.90
48912;DHT22;34722;52.108;5.044;2023-06-04T08:46:12;29.90;1.00
48912;DHT22;34722;52.108;5.044;2023-06-04T08:48:39;29.10;1.00
48912;DHT22;34722;52.108;5.044;2023-06-04T08:51:06;27.40;1.00
48912;DHT22;34722;52.108;5.044;2023-06-04T08:53:35;26.90;1.00
48912;DHT22;34722;52.108;5.044;2023-06-04T08:56:03;27.40;1.00
48912;DHT22;34722;52.108;5.044;2023-06-04T08:58:36;29.00;1.00
48912;DHT22;34722;52.108;5.044;2023-06-04T09:01:01;29.50;1.00
48912;DHT22;34722;52.108;5.044;2023-06-04T09:03:33;30.00;1.00
48912;DHT22;34722;52.108;5.044;2023-06-04T09:06:03;30.30;1.00
48912;DHT22;34722;52.108;5.044;2023-06-04T09:08:35;30.40;1.00
48912;DHT22;34722;52.108;5.044;2023-06-04T09:11:08;30.90;1.00
48912;DHT22;34722;52.108;5.044;2023-06-04T09:13:36;30.90;1.00
48912;DHT22;34722;52.108;5.044;2023-06-04T09:16:02;30.90;1.00
48912;DHT22;34722;52.108;5.044;2023-06-04T09:23:47;31.10;1.00
48912;DHT22;34722;52.108;5.044;2023-06-04T09:26:14;30.70;1.00
48912;DHT22;34722;52.108;5.044;2023-06-04T09:29:04;30.70;1.00
48912;DHT22;34722;52.108;5.044;2023-06-04T09:31:31;31.50;1.00
48912;DHT22;34722;52.108;5.044;2023-06-04T09:34:02;31.90;1.00
48912;DHT22;34722;52.108;5.044;2023-06-04T09:36:40;31.90;1.00
48912;DHT22;34722;52.108;5.044;2023-06-04T09:39:21;31.70;1.00
48912;DHT22;34722;52.108;5.044;2023-06-04T09:42:06;31.50;1.00
48912;DHT22;34722;52.108;5.044;2023-06-04T09:45:03;31.60;1.00
48912;DHT22;34722;52.108;5.044;2023-06-04T09:47:47;31.50;1.00
48912;DHT22;34722;52.108;5.044;2023-06-04T09:50:29;31.40;1.00
48912;DHT22;34722;52.108;5.044;2023-06-04T09:56:22;31.40;1.00
48912;DHT22;34722;52.108;5.044;2023-06-04T09:58:55;31.80;1.00
48912;DHT22;34722;52.108;5.044;2023-06-04T10:01:30;31.10;1.00
48912;DHT22;34722;52.108;5.044;2023-06-04T10:04:02;29.80;1.00
48912;DHT22;34722;52.108;5.044;2023-06-04T10:06:35;29.70;1.00
48912;DHT22;34722;52.108;5.044;2023-06-04T10:09:44;30.50;1.00
48912;DHT22;34722;52.108;5.044;2023-06-04T10:15:21;31.30;1.00
48912;DHT22;34722;52.108;5.044;2023-06-04T10:17:54;31.80;1.00
48912;DHT22;34722;52.108;5.044;2023-06-04T10:23:17;32.10;1.00
48912;DHT22;34722;52.108;5.044;2023-06-04T10:25:49;32.30;1.00
48912;DHT22;34722;52.108;5.044;2023-06-04T10:28:29;32.80;1.00
48912;DHT22;34722;52.108;5.044;2023-06-04T10:31:32;32.90;1.00
48912;DHT22;34722;52.108;5.044;2023-06-04T10:34:10;31.90;1.00
48912;DHT22;34722;52.108;5.044;2023-06-04T10:36:45;32.50;1.00
48912;DHT22;34722;52.108;5.044;2023-06-04T10:42:48;33.40;1.00
48912;DHT22;34722;52.108;5.044;2023-06-04T11:31:49;32.30;1.00
48912;DHT22;34722;52.108;5.044;2023-06-04T11:34:25;31.90;1.00
48912;DHT22;34722;52.108;5.044;2023-06-04T11:36:51;32.10;1.00
48912;DHT22;34722;52.108;5.044;2023-06-04T11:39:33;31.90;1.00
48912;DHT22;34722;52.108;5.044;2023-06-04T11:41:59;32.50;1.00
48912;DHT22;34722;52.108;5.044;2023-06-04T11:44:29;32.30;1.00
48912;DHT22;34722;52.108;5.044;2023-06-04T11:46:55;32.60;1.00
48912;DHT22;34722;52.108;5.044;2023-06-04T11:49:21;32.50;1.00
48912;DHT22;34722;52.108;5.044;2023-06-04T11:51:50;32.10;1.00
48912;DHT22;34722;52.108;5.044;2023-06-04T11:54:18;31.20;1.00
48912;DHT22;34722;52.108;5.044;2023-06-04T11:56:44;30.70;1.00
48912;DHT22;34722;52.108;5.044;2023-06-04T11:59:14;31.10;1.00
48912;DHT22;34722;52.108;5.044;2023-06-04T12:01:42;30.60;1.00
48912;DHT22;34722;52.108;5.044;2023-06-04T12:04:13;31.30;1.00
48912;DHT22;34722;52.108;5.044;2023-06-04T12:06:50;31.90;1.00
48912;DHT22;34722;52.108;5.044;2023-06-04T12:09:21;31.90;1.00
48912;DHT22;34722;52.108;5.044;2023-06-04T12:11:47;31.10;1.00
48912;DHT22;34722;52.108;5.044;2023-06-04T12:14:18;30.30;1.00
48912;DHT22;34722;52.108;5.044;2023-06-04T12:16:56;30.20;1.00
48912;DHT22;34722;52.108;5.044;2023-06-04T12:19:22;30.10;1.00
48912;DHT22;34722;52.108;5.044;2023-06-04T12:22:04;29.30;1.00
48912;DHT22;34722;52.108;5.044;2023-06-04T12:24:32;29.30;1.00
48912;DHT22;34722;52.108;5.044;2023-06-04T12:27:06;29.20;1.00
48912;DHT22;34722;52.108;5.044;2023-06-04T12:29:36;28.60;1.00
48912;DHT22;34722;52.108;5.044;2023-06-04T12:32:07;27.80;1.00
48912;DHT22;34722;52.108;5.044;2023-06-04T12:34:34;27.20;1.00
48912;DHT22;34722;52.108;5.044;2023-06-04T12:37:00;27.00;1.00
48912;DHT22;34722;52.108;5.044;2023-06-04T12:39:26;26.50;1.00
48912;DHT22;34722;52.108;5.044;2023-06-04T12:41:52;26.10;1.00
48912;DHT22;34722;52.108;5.044;2023-06-04T12:44:18;26.00;1.00
48912;DHT22;34722;52.108;5.044;2023-06-04T12:46:44;26.00;1.00
48912;DHT22;34722;52.108;5.044;2023-06-04T12:49:09;25.60;1.00
48912;DHT22;34722;52.108;5.044;2023-06-04T12:51:35;25.40;1.00
48912;DHT22;34722;52.108;5.044;2023-06-04T12:54:02;25.20;1.00
48912;DHT22;34722;52.108;5.044;2023-06-04T12:56:28;25.20;1.00
48912;DHT22;34722;52.108;5.044;2023-06-04T12:58:53;25.00;1.00
48912;DHT22;34722;52.108;5.044;2023-06-04T13:01:19;25.00;1.00
48912;DHT22;34722;52.108;5.044;2023-06-04T13:03:45;25.00;1.00
48912;DHT22;34722;52.108;5.044;2023-06-04T13:06:14;25.00;1.00
48912;DHT22;34722;52.108;5.044;2023-06-04T13:08:39;25.00;1.00
48912;DHT22;34722;52.108;5.044;2023-06-04T13:11:05;25.00;1.00
48912;DHT22;34722;52.108;5.044;2023-06-04T13:13:31;25.00;1.00
48912;DHT22;34722;52.108;5.044;2023-06-04T13:15:57;24.90;1.00
48912;DHT22;34722;52.108;5.044;2023-06-04T13:18:23;24.90;1.00
48912;DHT22;34722;52.108;5.044;2023-06-04T13:20:49;24.90;1.00
48912;DHT22;34722;52.108;5.044;2023-06-04T13:23:15;24.50;1.00
48912;DHT22;34722;52.108;5.044;2023-06-04T13:25:41;24.70;1.00
48912;DHT22;34722;52.108;5.044;2023-06-04T13:28:08;24.70;1.00
48912;DHT22;34722;52.108;5.044;2023-06-04T13:30:37;24.70;1.00
48912;DHT22;34722;52.108;5.044;2023-06-04T13:33:03;24.50;1.00
48912;DHT22;34722;52.108;5.044;2023-06-04T13:35:29;24.60;1.00
48912;DHT22;34722;52.108;5.044;2023-06-04T13:37:55;24.20;1.00
48912;DHT22;34722;52.108;5.044;2023-06-04T13:40:21;24.10;1.00
48912;DHT22;34722;52.108;5.044;2023-06-04T13:42:47;24.20;1.00
48912;DHT22;34722;52.108;5.044;2023-06-04T13:45:12;24.40;1.00
48912;DHT22;34722;52.108;5.044;2023-06-04T13:47:38;24.70;1.00
48912;DHT22;34722;52.108;5.044;2023-06-04T13:50:04;24.70;1.00
48912;DHT22;34722;52.108;5.044;2023-06-04T13:52:30;24.70;1.00
48912;DHT22;34722;52.108;5.044;2023-06-04T13:54:56;24.50;1.00
48912;DHT22;34722;52.108;5.044;2023-06-04T13:57:25;24.60;1.00
48912;DHT22;34722;52.108;5.044;2023-06-04T13:59:51;24.80;1.00
48912;DHT22;34722;52.108;5.044;2023-06-04T14:02:17;24.90;1.00
48912;DHT22;34722;52.108;5.044;2023-06-04T14:04:42;24.30;1.00
48912;DHT22;34722;52.108;5.044;2023-06-04T14:07:08;24.40;1.00
48912;DHT22;34722;52.108;5.044;2023-06-04T14:09:34;24.40;1.00
48912;DHT22;34722;52.108;5.044;2023-06-04T14:12:01;24.20;1.00
48912;DHT22;34722;52.108;5.044;2023-06-04T14:14:28;23.80;1.00
48912;DHT22;34722;52.108;5.044;2023-06-04T14:17:02;23.90;1.00
48912;DHT22;34722;52.108;5.044;2023-06-04T14:19:27;23.80;1.00
48912;DHT22;34722;52.108;5.044;2023-06-04T14:24:52;23.50;1.00
48912;DHT22;34722;52.108;5.044;2023-06-04T14:27:21;23.40;1.00
48912;DHT22;34722;52.108;5.044;2023-06-04T14:29:47;23.50;1.00
48912;DHT22;34722;52.108;5.044;2023-06-04T14:32:13;23.60;1.00
48912;DHT22;34722;52.108;5.044;2023-06-04T14:34:47;23.60;1.00
48912;DHT22;34722;52.108;5.044;2023-06-04T14:37:18;23.40;1.00
48912;DHT22;34722;52.108;5.044;2023-06-04T14:39:45;23.30;1.00
48912;DHT22;34722;52.108;5.044;2023-06-04T14:42:11;23.40;1.00
48912;DHT22;34722;52.108;5.044;2023-06-04T14:44:37;23.50;1.00
48912;DHT22;34722;52.108;5.044;2023-06-04T14:47:05;23.60;1.00
48912;DHT22;34722;52.108;5.044;2023-06-04T14:49:33;23.50;1.00
48912;DHT22;34722;52.108;5.044;2023-06-04T14:51:59;23.40;1.00
48912;DHT22;34722;52.108;5.044;2023-06-04T14:54:25;23.40;1.00
48912;DHT22;34722;52.108;5.044;2023-06-04T14:56:51;23.40;1.00
48912;DHT22;34722;52.108;5.044;2023-06-04T14:59:20;23.40;1.00
48912;DHT22;34722;52.108;5.044;2023-06-04T15:01:46;23.20;1.00
48912;DHT22;34722;52.108;5.044;2023-06-04T15:04:12;22.90;1.00
48912;DHT22;34722;52.108;5.044;2023-06-04T15:06:38;23.10;1.00
48912;DHT22;34722;52.108;5.044;2023-06-04T15:09:03;23.10;1.00
48912;DHT22;34722;52.108;5.044;2023-06-04T15:11:29;23.10;1.00
48912;DHT22;34722;52.108;5.044;2023-06-04T15:13:55;23.10;1.00
48912;DHT22;34722;52.108;5.044;2023-06-04T15:16:21;23.00;1.00
48912;DHT22;34722;52.108;5.044;2023-06-04T15:18:47;23.00;1.00
48912;DHT22;34722;52.108;5.044;2023-06-04T15:21:13;22.90;1.00
48912;DHT22;34722;52.108;5.044;2023-06-04T15:23:40;22.80;1.00
48912;DHT22;34722;52.108;5.044;2023-06-04T15:26:08;22.70;1.00
48912;DHT22;34722;52.108;5.044;2023-06-04T15:28:36;22.40;1.00
48912;DHT22;34722;52.108;5.044;2023-06-04T15:31:02;22.40;1.00
48912;DHT22;34722;52.108;5.044;2023-06-04T15:33:28;22.40;1.00
48912;DHT22;34722;52.108;5.044;2023-06-04T15:35:54;22.20;1.00
48912;DHT22;34722;52.108;5.044;2023-06-04T15:38:20;22.20;1.00
48912;DHT22;34722;52.108;5.044;2023-06-04T15:40:45;22.30;1.00
48912;DHT22;34722;52.108;5.044;2023-06-04T15:43:20;22.30;1.00
48912;DHT22;34722;52.108;5.044;2023-06-04T15:45:48;22.30;1.00
48912;DHT22;34722;52.108;5.044;2023-06-04T15:48:18;22.30;1.00
48912;DHT22;34722;52.108;5.044;2023-06-04T15:50:44;22.30;1.00
48912;DHT22;34722;52.108;5.044;2023-06-04T15:53:09;22.20;1.00
48912;DHT22;34722;52.108;5.044;2023-06-04T15:55:35;22.30;1.00
48912;DHT22;34722;52.108;5.044;2023-06-04T16:00:51;22.20;3.40
48912;DHT22;34722;52.108;5.044;2023-06-04T16:03:20;22.10;1.00
48912;DHT22;34722;52.108;5.044;2023-06-04T16:05:46;22.00;1.00
48912;DHT22;34722;52.108;5.044;2023-06-04T16:08:11;21.90;1.00
48912;DHT22;34722;52.108;5.044;2023-06-04T16:10:37;21.60;12.20
48912;DHT22;34722;52.108;5.044;2023-06-04T16:13:03;21.60;43.40
48912;DHT22;34722;52.108;5.044;2023-06-04T16:15:29;21.30;77.60
48912;DHT22;34722;52.108;5.044;2023-06-04T16:17:55;21.30;99.90
48912;DHT22;34722;52.108;5.044;2023-06-04T16:20:21;21.30;99.90
48912;DHT22;34722;52.108;5.044;2023-06-04T16:22:48;21.30;99.90
48912;DHT22;34722;52.108;5.044;2023-06-04T16:25:13;21.10;99.90
48912;DHT22;34722;52.108;5.044;2023-06-04T16:27:44;21.20;99.90
48912;DHT22;34722;52.108;5.044;2023-06-04T16:30:10;21.00;99.90
48912;DHT22;34722;52.108;5.044;2023-06-04T16:32:35;21.00;99.90
48912;DHT22;34722;52.108;5.044;2023-06-04T16:35:01;21.10;99.90
48912;DHT22;34722;52.108;5.044;2023-06-04T16:37:29;21.10;99.90
48912;DHT22;34722;52.108;5.044;2023-06-04T16:39:55;20.90;99.90
48912;DHT22;34722;52.108;5.044;2023-06-04T16:42:21;20.80;99.90
48912;DHT22;34722;52.108;5.044;2023-06-04T16:44:46;20.70;99.90
48912;DHT22;34722;52.108;5.044;2023-06-04T16:47:14;20.40;99.90
48912;DHT22;34722;52.108;5.044;2023-06-04T16:49:40;20.50;99.90
48912;DHT22;34722;52.108;5.044;2023-06-04T16:52:05;20.50;99.90
48912;DHT22;34722;52.108;5.044;2023-06-04T16:54:33;20.50;99.90
48912;DHT22;34722;52.108;5.044;2023-06-04T16:56:58;20.70;99.90
48912;DHT22;34722;52.108;5.044;2023-06-04T16:59:24;20.80;1.00
48912;DHT22;34722;52.108;5.044;2023-06-04T17:01:56;20.60;99.90
48912;DHT22;34722;52.108;5.044;2023-06-04T17:04:22;20.30;99.90
48912;DHT22;34722;52.108;5.044;2023-06-04T17:06:48;20.30;1.00
48912;DHT22;34722;52.108;5.044;2023-06-04T17:09:14;20.20;1.00
48912;DHT22;34722;52.108;5.044;2023-06-04T17:11:39;20.20;1.00
48912;DHT22;34722;52.108;5.044;2023-06-04T17:14:05;20.10;1.00
48912;DHT22;34722;52.108;5.044;2023-06-04T17:16:31;20.00;1.00
48912;DHT22;34722;52.108;5.044;2023-06-04T17:18:57;19.80;1.00
48912;DHT22;34722;52.108;5.044;2023-06-04T17:21:22;19.80;1.00
48912;DHT22;34722;52.108;5.044;2023-06-04T17:23:49;19.80;1.00
48912;DHT22;34722;52.108;5.044;2023-06-04T17:26:15;19.60;1.00
48912;DHT22;34722;52.108;5.044;2023-06-04T17:28:40;19.60;1.00
48912;DHT22;34722;52.108;5.044;2023-06-04T17:31:06;19.50;1.00
48912;DHT22;34722;52.108;5.044;2023-06-04T17:33:32;19.40;1.00
48912;DHT22;34722;52.108;5.044;2023-06-04T17:35:58;19.40;1.00
48912;DHT22;34722;52.108;5.044;2023-06-04T17:38:23;19.40;29.30
48912;DHT22;34722;52.108;5.044;2023-06-04T17:40:49;19.40;39.30
48912;DHT22;34722;52.108;5.044;2023-06-04T17:43:15;19.30;68.90
48912;DHT22;34722;52.108;5.044;2023-06-04T17:45:40;19.10;99.90
48912;DHT22;34722;52.108;5.044;2023-06-04T17:48:07;19.00;99.90
48912;DHT22;34722;52.108;5.044;2023-06-04T17:50:33;18.90;99.90
48912;DHT22;34722;52.108;5.044;2023-06-04T17:52:59;18.90;99.90
48912;DHT22;34722;52.108;5.044;2023-06-04T17:55:25;18.70;99.90
48912;DHT22;34722;52.108;5.044;2023-06-04T17:57:50;18.60;99.90
48912;DHT22;34722;52.108;5.044;2023-06-04T18:00:16;18.60;99.90
48912;DHT22;34722;52.108;5.044;2023-06-04T18:02:42;18.60;1.00
48912;DHT22;34722;52.108;5.044;2023-06-04T18:05:08;18.50;1.00
48912;DHT22;34722;52.108;5.044;2023-06-04T18:07:34;18.40;1.00
48912;DHT22;34722;52.108;5.044;2023-06-04T18:10:00;18.30;1.00